Time;durP1;ratioP1;P1;durP2;ratioP2;P2;SDS_P1;SDS_P2;PMS_P1;PMS_P2;Temp;Humidity;BMP_temperature;BMP_pressure;BME280_temperature;BME280_humidity;BME280_pressure;Samples;Min_cycle;Max_cycle;Signal;HPM_P1;HPM_P2
2021/08/13 00:01:42;;;;;;;12.80;8.77;;;21.70;69.30;;;;;;5055876;28;20448;-74
2021/08/13 00:04:09;;;;;;;10.00;9.10;;;21.70;69.50;;;;;;5056416;28;20431;-74
2021/08/13 00:06:40;;;;;;;10.33;9.33;;;21.60;70.50;;;;;;5056677;28;20443;-75
2021/08/13 00:09:07;;;;;;;11.57;9.50;;;21.60;70.70;;;;;;5056919;28;20523;-75
2021/08/13 00:11:35;;;;;;;10.63;9.27;;;21.60;70.80;;;;;;5056557;28;20534;-73
2021/08/13 00:14:02;;;;;;;9.90;9.00;;;21.60;71.70;;;;;;5056005;28;20560;-73
2021/08/13 00:16:31;;;;;;;10.27;8.90;;;21.60;70.70;;;;;;5055329;28;20546;-73
2021/08/13 00:18:58;;;;;;;12.10;9.20;;;21.60;70.50;;;;;;5055821;28;20504;-73
2021/08/13 00:21:24;;;;;;;9.90;8.83;;;21.50;71.80;;;;;;5056602;28;20515;-74
2021/08/13 00:23:51;;;;;;;13.20;10.27;;;21.40;73.10;;;;;;5055854;28;20521;-73
2021/08/13 00:26:18;;;;;;;11.13;9.87;;;21.40;74.20;;;;;;5056347;28;20638;-74
2021/08/13 00:28:45;;;;;;;12.63;9.53;;;21.40;74.60;;;;;;5055852;28;20548;-73
2021/08/13 00:31:12;;;;;;;12.53;9.90;;;21.40;75.30;;;;;;5056844;28;20419;-74
2021/08/13 00:33:40;;;;;;;10.97;9.97;;;21.40;75.90;;;;;;5057189;28;20503;-75
2021/08/13 00:36:07;;;;;;;11.60;10.50;;;21.30;77.90;;;;;;5055956;28;20464;-75
2021/08/13 00:38:34;;;;;;;11.37;10.30;;;21.20;78.90;;;;;;5055187;28;20839;-76
2021/08/13 00:41:02;;;;;;;10.17;9.10;;;21.10;79.90;;;;;;5035966;28;20523;-75
2021/08/13 00:43:29;;;;;;;14.90;10.03;;;21.10;80.30;;;;;;5036467;28;20465;-75
2021/08/13 00:45:56;;;;;;;11.23;10.07;;;21.10;80.10;;;;;;5058596;28;20574;-73
2021/08/13 00:48:23;;;;;;;14.10;10.23;;;21.00;80.80;;;;;;5055630;28;20496;-75
2021/08/13 00:50:51;;;;;;;10.77;9.67;;;21.00;81.50;;;;;;5055312;28;20463;-74
2021/08/13 00:53:18;;;;;;;11.47;10.37;;;21.10;81.60;;;;;;5055378;28;20432;-74
2021/08/13 00:55:49;;;;;;;12.13;10.83;;;21.20;81.30;;;;;;5058928;28;20499;-75
2021/08/13 00:58:16;;;;;;;13.07;10.27;;;21.30;80.70;;;;;;5075685;28;20453;-75
2021/08/13 01:00:44;;;;;;;11.70;10.53;;;21.40;79.70;;;;;;5078755;28;20437;-75
2021/08/13 01:03:11;;;;;;;12.80;10.77;;;21.50;78.10;;;;;;5069530;28;20502;-74
2021/08/13 01:05:38;;;;;;;12.23;11.00;;;21.50;78.10;;;;;;5056917;28;20562;-75
2021/08/13 01:08:07;;;;;;;12.33;9.57;;;21.60;78.20;;;;;;5055750;28;21012;-75
2021/08/13 01:10:41;;;;;;;11.60;10.37;;;21.60;78.20;;;;;;5056600;28;20520;-75
2021/08/13 01:13:12;;;;;;;11.97;9.60;;;21.70;77.20;;;;;;5054972;28;20506;-75
2021/08/13 01:15:44;;;;;;;12.17;10.80;;;21.70;76.50;;;;;;5053315;28;20511;-75
2021/08/13 01:18:14;;;;;;;11.23;10.13;;;21.80;75.10;;;;;;5054812;28;20417;-74
2021/08/13 01:21:21;;;;;;;11.33;10.20;;;21.80;75.00;;;;;;5053735;28;20468;-75
2021/08/13 01:23:53;;;;;;;10.77;9.67;;;21.90;74.50;;;;;;5053988;28;20463;-75
2021/08/13 01:26:22;;;;;;;10.73;9.20;;;22.00;73.60;;;;;;5054573;28;20504;-75
2021/08/13 01:28:58;;;;;;;10.90;9.50;;;22.00;73.50;;;;;;5053751;28;20527;-74
2021/08/13 01:31:27;;;;;;;10.47;9.37;;;22.00;73.30;;;;;;5056061;28;20547;-74
2021/08/13 01:33:59;;;;;;;11.50;9.67;;;21.90;73.30;;;;;;5055223;28;20438;-74
2021/08/13 01:36:29;;;;;;;11.47;10.13;;;22.00;73.50;;;;;;5056293;28;20530;-74
2021/08/13 01:39:00;;;;;;;10.13;9.13;;;21.90;74.10;;;;;;5054381;28;20563;-74
2021/08/13 01:41:28;;;;;;;14.37;10.70;;;21.90;75.00;;;;;;5058937;28;20439;-75
2021/08/13 01:43:55;;;;;;;14.10;10.80;;;21.90;75.70;;;;;;5072632;28;20454;-74
2021/08/13 01:46:23;;;;;;;11.43;10.30;;;21.90;76.00;;;;;;5064952;28;20532;-75
2021/08/13 01:48:51;;;;;;;11.17;9.87;;;21.80;76.30;;;;;;5070726;28;20480;-74
2021/08/13 01:51:19;;;;;;;10.93;9.93;;;21.70;77.30;;;;;;5062484;28;20428;-74
2021/08/13 01:53:48;;;;;;;11.03;9.93;;;21.60;78.20;;;;;;5056290;28;20432;-73
2021/08/13 01:56:16;;;;;;;11.17;10.03;;;21.50;78.10;;;;;;5056816;28;20974;-74
2021/08/13 01:58:43;;;;;;;11.33;10.23;;;21.40;78.00;;;;;;5054400;28;20434;-74
2021/08/13 02:01:10;;;;;;;14.30;9.40;;;21.40;78.50;;;;;;5055044;28;20516;-72
2021/08/13 02:03:39;;;;;;;10.50;9.57;;;21.30;79.40;;;;;;5054216;28;20547;-74
2021/08/13 02:06:07;;;;;;;10.40;9.30;;;21.20;80.00;;;;;;5054125;28;20456;-74
2021/08/13 02:08:38;;;;;;;10.50;9.30;;;21.20;80.30;;;;;;5053846;28;20459;-74
2021/08/13 02:11:06;;;;;;;11.20;10.00;;;21.00;80.90;;;;;;5053997;28;20517;-75
2021/08/13 02:13:36;;;;;;;10.00;9.10;;;21.00;81.80;;;;;;5053955;28;20460;-74
2021/08/13 02:16:08;;;;;;;11.97;10.13;;;21.00;81.50;;;;;;5053611;28;20468;-75
2021/08/13 02:18:38;;;;;;;10.43;9.37;;;21.00;81.50;;;;;;5052421;28;20540;-74
2021/08/13 02:21:08;;;;;;;10.93;9.83;;;21.00;80.70;;;;;;5052885;28;20442;-74
2021/08/13 02:23:36;;;;;;;14.10;10.53;;;21.00;81.40;;;;;;5052477;28;20823;-74
2021/08/13 02:26:03;;;;;;;12.57;10.77;;;21.10;82.10;;;;;;5052674;28;20910;-75
2021/08/13 02:28:31;;;;;;;10.77;9.67;;;21.00;83.00;;;;;;5052421;28;20465;-74
2021/08/13 02:30:58;;;;;;;11.57;10.37;;;21.00;86.40;;;;;;5052697;28;20460;-74
2021/08/13 02:33:25;;;;;;;12.00;10.80;;;20.90;88.60;;;;;;5123927;22;20547;-79
2021/08/13 02:35:54;;;;;;;13.70;10.23;;;20.80;90.00;;;;;;5094390;28;20442;-79
2021/08/13 02:38:51;;;;;;;12.13;10.43;;;20.70;90.30;;;;;;5091984;28;20455;-80
2021/08/13 02:41:18;;;;;;;15.07;10.87;;;20.70;90.50;;;;;;5071084;28;20451;-79
2021/08/13 02:43:50;;;;;;;12.30;10.50;;;20.80;90.30;;;;;;5079251;28;20536;-79
2021/08/13 02:46:27;;;;;;;16.53;11.17;;;20.80;90.40;;;;;;5086461;28;20494;-79
2021/08/13 02:48:58;;;;;;;13.13;11.00;;;20.90;90.90;;;;;;5088230;28;20413;-79
2021/08/13 02:51:28;;;;;;;11.77;10.53;;;21.00;90.70;;;;;;5080610;28;20519;-80
2021/08/13 02:53:57;;;;;;;11.87;10.67;;;21.00;90.60;;;;;;5083855;28;20485;-81
2021/08/13 02:56:28;;;;;;;11.50;10.37;;;21.10;90.30;;;;;;5082536;28;20481;-79
2021/08/13 02:58:59;;;;;;;12.23;10.50;;;21.20;90.10;;;;;;5081201;28;20444;-79
2021/08/13 03:01:29;;;;;;;11.53;10.27;;;21.20;90.10;;;;;;5082615;28;20464;-80
2021/08/13 03:03:57;;;;;;;11.10;10.00;;;21.30;89.40;;;;;;5078931;28;20482;-79
2021/08/13 03:06:28;;;;;;;13.00;9.90;;;21.40;87.80;;;;;;5074503;28;20917;-77
2021/08/13 03:08:57;;;;;;;11.17;10.07;;;21.50;86.80;;;;;;5073705;28;21013;-78
2021/08/13 03:11:25;;;;;;;10.63;9.40;;;21.60;85.00;;;;;;5078843;28;20462;-78
2021/08/13 03:13:54;;;;;;;11.23;10.03;;;21.60;83.10;;;;;;5080898;28;20480;-79
2021/08/13 03:16:20;;;;;;;11.50;10.30;;;21.60;82.70;;;;;;5093360;28;20445;-78
2021/08/13 03:18:48;;;;;;;13.50;9.07;;;21.40;82.40;;;;;;5097488;28;20438;-78
2021/08/13 03:21:16;;;;;;;12.53;9.53;;;21.40;82.70;;;;;;5097679;28;20449;-78
2021/08/13 03:23:44;;;;;;;11.07;9.97;;;21.30;82.70;;;;;;5097175;28;20455;-78
2021/08/13 03:26:14;;;;;;;11.10;10.00;;;21.20;83.10;;;;;;5096513;28;20488;-79
2021/08/13 03:28:41;;;;;;;11.43;10.23;;;21.10;84.00;;;;;;5083817;28;20448;-78
2021/08/13 03:31:08;;;;;;;11.83;10.63;;;21.10;86.40;;;;;;5080612;28;20780;-79
2021/08/13 03:33:35;;;;;;;13.23;11.23;;;21.00;88.90;;;;;;5081676;28;20484;-76
2021/08/13 03:36:02;;;;;;;14.37;12.00;;;20.90;90.70;;;;;;5082517;28;20497;-77
2021/08/13 03:38:29;;;;;;;12.97;11.43;;;20.90;92.10;;;;;;5074327;28;20542;-77
2021/08/13 03:40:56;;;;;;;17.70;13.60;;;20.80;94.20;;;;;;5074504;28;20452;-77
2021/08/13 03:43:24;;;;;;;21.00;14.40;;;20.70;97.40;;;;;;5073661;28;20894;-76
2021/08/13 03:45:51;;;;;;;21.77;14.40;;;20.60;99.30;;;;;;5073050;28;20495;-77
2021/08/13 03:48:18;;;;;;;21.27;15.87;;;20.20;99.90;;;;;;5075039;28;20497;-77
2021/08/13 03:50:45;;;;;;;16.70;14.10;;;20.20;99.90;;;;;;5074454;28;20797;-78
2021/08/13 03:53:11;;;;;;;18.47;15.30;;;20.10;99.90;;;;;;5073461;28;20480;-77
2021/08/13 03:55:38;;;;;;;19.50;14.03;;;20.00;99.90;;;;;;5072362;28;20427;-77
2021/08/13 03:58:05;;;;;;;16.40;14.80;;;19.90;99.90;;;;;;5072752;28;20461;-76
2021/08/13 04:00:33;;;;;;;16.00;14.40;;;19.90;99.90;;;;;;5072442;28;20454;-76
2021/08/13 04:03:00;;;;;;;19.43;14.67;;;19.80;99.90;;;;;;5071833;28;20423;-76
2021/08/13 04:05:30;;;;;;;17.07;15.40;;;19.70;99.90;;;;;;5071956;28;20524;-77
2021/08/13 04:07:57;;;;;;;17.20;15.53;;;19.60;99.90;;;;;;5072064;28;20429;-76
2021/08/13 04:10:24;;;;;;;16.07;14.60;;;19.50;99.90;;;;;;5071797;28;20467;-76
2021/08/13 04:12:50;;;;;;;21.20;15.30;;;19.40;99.90;;;;;;5072259;28;20510;-76
2021/08/13 04:15:17;;;;;;;18.47;14.90;;;19.40;99.90;;;;;;5074581;28;20512;-77
2021/08/13 04:17:46;;;;;;;16.87;15.20;;;19.40;99.90;;;;;;5072287;28;20460;-78
2021/08/13 04:20:14;;;;;;;19.50;16.73;;;19.40;99.90;;;;;;5074389;28;20457;-78
2021/08/13 04:22:41;;;;;;;20.50;16.57;;;19.40;99.90;;;;;;5073997;28;20456;-76
2021/08/13 04:25:09;;;;;;;18.70;16.07;;;19.40;99.90;;;;;;5075295;28;20510;-77
2021/08/13 04:27:36;;;;;;;18.60;16.60;;;19.50;99.90;;;;;;5075385;28;20519;-77
2021/08/13 04:30:03;;;;;;;20.97;18.17;;;19.50;99.90;;;;;;5076817;28;20467;-77
2021/08/13 04:32:30;;;;;;;21.53;17.53;;;19.60;99.90;;;;;;5077147;28;21000;-77
2021/08/13 04:34:58;;;;;;;18.30;16.30;;;19.50;99.90;;;;;;5077438;28;20535;-77
2021/08/13 04:37:25;;;;;;;18.63;16.47;;;19.60;99.90;;;;;;5079525;28;20531;-77
2021/08/13 04:39:52;;;;;;;17.90;16.00;;;19.60;99.90;;;;;;5074977;28;20539;-77
2021/08/13 04:42:19;;;;;;;18.50;16.50;;;19.50;99.90;;;;;;5075025;28;20496;-77
2021/08/13 04:44:46;;;;;;;20.63;18.37;;;19.50;99.90;;;;;;5074742;28;20563;-77
2021/08/13 04:47:13;;;;;;;18.27;16.43;;;19.50;99.90;;;;;;5081541;28;20558;-78
2021/08/13 04:49:39;;;;;;;19.20;16.23;;;19.50;99.90;;;;;;5092374;28;20449;-79
2021/08/13 04:52:08;;;;;;;19.47;17.47;;;19.50;99.90;;;;;;5099652;28;20439;-80
2021/08/13 04:54:35;;;;;;;17.60;15.70;;;19.50;99.90;;;;;;5099628;28;20436;-80
2021/08/13 04:57:02;;;;;;;18.03;15.67;;;19.50;99.90;;;;;;5099736;28;20442;-80
2021/08/13 04:59:29;;;;;;;18.47;16.70;;;19.50;99.90;;;;;;5083053;28;20477;-78
2021/08/13 05:01:57;;;;;;;17.07;15.03;;;19.60;99.90;;;;;;5075997;28;20456;-77
2021/08/13 05:04:24;;;;;;;18.67;16.87;;;19.50;99.90;;;;;;5077205;28;20442;-78
2021/08/13 05:06:51;;;;;;;17.40;15.60;;;19.60;99.90;;;;;;5076849;28;20459;-77
2021/08/13 05:09:19;;;;;;;19.00;17.10;;;19.60;99.90;;;;;;5075644;28;20929;-78
2021/08/13 05:11:46;;;;;;;18.10;16.30;;;19.70;99.90;;;;;;5075829;28;20964;-78
2021/08/13 05:14:13;;;;;;;18.67;16.60;;;19.70;99.90;;;;;;5076525;28;20484;-77
2021/08/13 05:16:40;;;;;;;17.30;15.43;;;19.70;99.90;;;;;;5075384;28;20955;-77
2021/08/13 05:19:07;;;;;;;18.37;15.97;;;19.80;99.90;;;;;;5075552;28;21032;-77
2021/08/13 05:21:37;;;;;;;17.77;15.77;;;19.90;99.90;;;;;;5084769;28;20422;-77
2021/08/13 05:24:04;;;;;;;17.07;15.27;;;20.10;99.90;;;;;;5089709;28;20492;-77
2021/08/13 05:26:33;;;;;;;17.30;15.47;;;20.40;99.90;;;;;;5088847;28;20505;-77
2021/08/13 05:29:00;;;;;;;15.30;13.57;;;20.70;99.90;;;;;;5081095;28;20479;-77
2021/08/13 05:31:27;;;;;;;15.90;13.57;;;20.90;99.90;;;;;;5077288;28;20542;-77
2021/08/13 05:33:53;;;;;;;16.67;12.30;;;21.30;99.90;;;;;;5077099;28;20490;-78
2021/08/13 05:36:20;;;;;;;14.63;12.27;;;21.70;99.90;;;;;;5079118;28;20523;-78
2021/08/13 05:38:47;;;;;;;14.03;11.30;;;22.10;99.90;;;;;;5079120;28;20502;-78
2021/08/13 05:41:14;;;;;;;12.67;11.13;;;22.60;99.90;;;;;;5077406;28;20486;-79
2021/08/13 05:43:42;;;;;;;11.77;10.77;;;23.10;98.20;;;;;;5076669;28;20539;-77
2021/08/13 05:46:09;;;;;;;13.00;11.63;;;23.30;92.70;;;;;;5077367;28;20563;-78
2021/08/13 05:48:36;;;;;;;11.93;10.67;;;23.80;91.00;;;;;;5057115;28;20829;-77
2021/08/13 05:51:03;;;;;;;11.10;10.00;;;24.30;89.30;;;;;;5055186;28;20952;-77
2021/08/13 05:53:30;;;;;;;11.93;10.83;;;24.70;83.10;;;;;;5054526;28;20487;-75
2021/08/13 05:55:57;;;;;;;12.90;11.70;;;25.00;77.10;;;;;;5053968;28;20440;-77
2021/08/13 05:58:24;;;;;;;12.27;11.10;;;25.30;76.20;;;;;;5054448;28;20500;-77
2021/08/13 06:00:52;;;;;;;12.57;11.27;;;25.00;72.30;;;;;;5054057;28;20481;-77
2021/08/13 06:03:19;;;;;;;13.27;11.97;;;24.50;73.40;;;;;;5053949;28;20916;-76
2021/08/13 06:05:46;;;;;;;12.23;11.03;;;24.10;78.60;;;;;;5054646;28;20441;-76
2021/08/13 06:08:13;;;;;;;12.80;11.23;;;24.10;82.90;;;;;;5059257;28;21005;-78
2021/08/13 06:10:39;;;;;;;12.80;11.50;;;24.30;77.80;;;;;;5064931;28;20448;-77
2021/08/13 06:13:06;;;;;;;13.23;10.50;;;24.80;74.70;;;;;;5072642;28;20441;-79
2021/08/13 06:15:33;;;;;;;11.47;10.30;;;24.90;75.80;;;;;;5067243;28;20543;-79
2021/08/13 06:18:02;;;;;;;12.13;11.00;;;24.80;72.20;;;;;;5058720;28;20459;-77
2021/08/13 06:20:28;;;;;;;11.97;10.60;;;25.10;72.40;;;;;;5058669;28;20453;-77
2021/08/13 06:22:56;;;;;;;11.13;10.13;;;25.70;68.90;;;;;;5058005;28;20458;-78
2021/08/13 06:25:23;;;;;;;11.83;10.70;;;26.30;67.90;;;;;;5054351;28;20433;-79
2021/08/13 06:27:50;;;;;;;12.03;10.70;;;26.30;64.70;;;;;;5054186;28;20480;-78
2021/08/13 06:30:19;;;;;;;12.33;11.03;;;26.00;64.50;;;;;;5054368;28;20619;-78
2021/08/13 06:32:46;;;;;;;12.20;10.60;;;25.70;66.20;;;;;;5054046;28;20453;-77
2021/08/13 06:35:15;;;;;;;11.27;10.23;;;25.20;70.30;;;;;;5058699;28;20474;-78
2021/08/13 06:37:46;;;;;;;15.47;11.03;;;25.10;72.30;;;;;;5060259;28;20440;-77
2021/08/13 06:40:14;;;;;;;11.47;10.37;;;24.90;73.90;;;;;;5068384;28;20838;-77
2021/08/13 06:42:41;;;;;;;10.77;9.73;;;25.00;72.30;;;;;;5081368;28;20522;-78
2021/08/13 06:45:09;;;;;;;11.53;10.43;;;25.00;72.30;;;;;;5082681;28;20466;-78
2021/08/13 06:47:36;;;;;;;13.07;10.00;;;25.00;72.30;;;;;;5079032;28;20492;-79
2021/08/13 06:50:02;;;;;;;13.93;11.20;;;24.80;72.20;;;;;;5079003;28;20513;-78
2021/08/13 06:52:31;;;;;;;12.37;11.00;;;24.50;74.50;;;;;;5076679;28;20451;-78
2021/08/13 06:54:58;;;;;;;11.97;10.77;;;24.30;72.60;;;;;;5076029;28;20533;-79
2021/08/13 06:57:24;;;;;;;12.23;11.00;;;24.20;76.30;;;;;;5075056;28;20472;-78
2021/08/13 06:59:51;;;;;;;11.40;10.40;;;24.30;76.40;;;;;;5075106;28;20562;-79
2021/08/13 07:02:18;;;;;;;20.03;12.07;;;24.20;76.80;;;;;;5086907;28;20424;-81
2021/08/13 07:04:45;;;;;;;12.90;11.60;;;24.30;78.40;;;;;;5095811;28;20463;-78
2021/08/13 07:07:13;;;;;;;13.30;11.37;;;24.30;78.10;;;;;;5091506;28;20461;-79
2021/08/13 07:09:46;;;;;;;13.00;11.60;;;24.20;78.70;;;;;;5094439;28;20448;-80
2021/08/13 07:12:13;;;;;;;12.80;10.30;;;24.20;78.00;;;;;;5095369;28;20448;-80
2021/08/13 07:14:39;;;;;;;11.07;10.00;;;24.30;76.20;;;;;;5095345;28;20495;-78
2021/08/13 07:17:06;;;;;;;12.70;10.40;;;24.30;75.50;;;;;;5095383;28;20471;-81
2021/08/13 07:19:33;;;;;;;10.67;9.30;;;24.40;73.90;;;;;;5073679;28;20550;-78
2021/08/13 07:22:00;;;;;;;12.57;10.53;;;24.50;71.90;;;;;;5079632;28;20542;-77
2021/08/13 07:24:27;;;;;;;15.90;10.53;;;24.40;72.50;;;;;;5076489;28;20559;-77
2021/08/13 07:26:55;;;;;;;16.03;9.83;;;24.40;71.80;;;;;;5075595;28;20491;-78
2021/08/13 07:29:23;;;;;;;9.70;8.73;;;24.60;70.40;;;;;;5076130;28;20431;-77
2021/08/13 07:31:51;;;;;;;10.50;9.50;;;24.70;67.50;;;;;;5076751;28;20476;-78
2021/08/13 07:34:18;;;;;;;14.73;10.17;;;25.00;68.10;;;;;;5077089;28;20868;-78
2021/08/13 07:36:45;;;;;;;17.00;9.67;;;25.40;65.90;;;;;;5078608;28;20490;-78
2021/08/13 07:39:13;;;;;;;9.97;8.90;;;25.60;65.80;;;;;;5095289;28;20451;-78
2021/08/13 07:41:41;;;;;;;10.67;9.57;;;25.90;63.80;;;;;;5096312;28;20472;-78
2021/08/13 07:44:09;;;;;;;10.00;9.00;;;26.00;62.70;;;;;;5095400;28;20445;-77
2021/08/13 07:46:36;;;;;;;10.90;9.17;;;26.10;62.40;;;;;;5094664;28;20422;-78
2021/08/13 07:49:03;;;;;;;9.40;8.50;;;26.20;59.80;;;;;;5095238;28;20489;-77
2021/08/13 07:51:30;;;;;;;10.30;9.30;;;26.20;59.70;;;;;;5095946;28;20884;-78
2021/08/13 07:53:57;;;;;;;8.97;7.97;;;26.20;59.20;;;;;;5097388;28;20477;-78
2021/08/13 07:56:24;;;;;;;10.17;8.70;;;26.30;58.70;;;;;;5096313;28;20464;-77
2021/08/13 07:58:51;;;;;;;13.37;8.47;;;26.20;59.40;;;;;;5099182;28;20446;-79
2021/08/13 08:01:19;;;;;;;10.43;8.10;;;26.30;60.00;;;;;;5101362;28;20450;-78
2021/08/13 08:03:46;;;;;;;10.03;8.30;;;26.30;58.20;;;;;;5099515;28;20636;-78
2021/08/13 08:06:13;;;;;;;10.37;8.50;;;26.30;58.20;;;;;;5099267;28;20454;-77
2021/08/13 08:08:40;;;;;;;8.83;8.03;;;26.40;56.80;;;;;;5096987;28;20566;-78
2021/08/13 08:11:07;;;;;;;13.00;8.90;;;26.40;56.10;;;;;;5096807;28;20457;-77
2021/08/13 08:13:34;;;;;;;8.43;7.23;;;26.30;56.60;;;;;;5097628;28;20854;-77
2021/08/13 08:16:02;;;;;;;10.43;8.30;;;26.30;55.70;;;;;;5097324;28;20425;-79
2021/08/13 08:18:31;;;;;;;10.00;7.57;;;26.40;56.00;;;;;;5097415;28;20443;-77
2021/08/13 08:20:58;;;;;;;11.10;8.47;;;26.60;55.70;;;;;;5097238;28;20505;-78
2021/08/13 08:23:25;;;;;;;10.23;7.00;;;26.80;55.50;;;;;;5097255;28;20470;-77
2021/08/13 08:25:51;;;;;;;8.70;7.50;;;26.70;54.70;;;;;;5097218;28;20479;-78
2021/08/13 08:28:18;;;;;;;9.60;8.17;;;26.50;54.60;;;;;;5097020;28;20551;-77
2021/08/13 08:30:45;;;;;;;7.93;7.13;;;26.60;54.80;;;;;;5114675;28;20426;-79
2021/08/13 08:33:12;;;;;;;9.50;7.50;;;26.60;56.50;;;;;;5116915;28;20911;-78
2021/08/13 08:35:40;;;;;;;10.10;7.83;;;26.80;54.80;;;;;;5099742;28;20814;-79
2021/08/13 08:38:08;;;;;;;9.27;7.17;;;26.70;54.70;;;;;;5099958;28;20439;-77
2021/08/13 08:40:37;;;;;;;10.77;7.37;;;26.70;54.70;;;;;;5097966;28;20521;-76
2021/08/13 08:43:06;;;;;;;8.57;6.97;;;26.90;53.10;;;;;;5098789;28;20477;-79
2021/08/13 08:45:34;;;;;;;9.23;6.90;;;26.90;53.40;;;;;;5096517;28;20516;-79
2021/08/13 08:48:03;;;;;;;11.00;7.67;;;27.00;54.50;;;;;;5103352;28;20560;-80
2021/08/13 08:50:32;;;;;;;12.70;7.90;;;27.20;53.60;;;;;;5100129;28;20489;-77
2021/08/13 08:53:02;;;;;;;10.13;7.43;;;27.30;52.20;;;;;;5098053;28;20451;-77
2021/08/13 08:55:29;;;;;;;8.73;6.87;;;27.60;51.80;;;;;;5097511;28;20905;-77
2021/08/13 08:57:58;;;;;;;7.43;6.10;;;27.60;50.40;;;;;;5095389;28;20479;-77
2021/08/13 09:00:25;;;;;;;10.40;6.83;;;27.60;49.50;;;;;;5095511;28;20432;-79
2021/08/13 09:02:54;;;;;;;13.23;6.87;;;27.60;50.10;;;;;;5083077;28;20510;-77
2021/08/13 09:05:21;;;;;;;11.43;6.70;;;27.70;49.20;;;;;;5074577;28;20454;-80
2021/08/13 09:07:48;;;;;;;7.17;6.47;;;27.70;48.90;;;;;;5079053;28;20523;-80
2021/08/13 09:10:17;;;;;;;8.67;7.13;;;27.70;48.50;;;;;;5081003;28;20572;-80
2021/08/13 09:12:44;;;;;;;13.17;6.60;;;27.70;49.00;;;;;;5081618;28;20430;-80
2021/08/13 09:15:28;;;;;;;9.23;6.80;;;27.70;49.40;;;;;;5082389;28;20440;-79
2021/08/13 09:18:20;;;;;;;9.40;6.60;;;27.70;49.60;;;;;;5094994;28;20427;-80
2021/08/13 09:20:50;;;;;;;9.20;7.27;;;28.00;48.90;;;;;;5051766;28;20469;-80
2021/08/13 09:23:32;;;;;;;8.33;7.07;;;28.10;49.00;;;;;;5063348;28;20463;-80
2021/08/13 09:26:02;;;;;;;12.83;7.50;;;28.20;48.60;;;;;;5061204;28;20459;-80
2021/08/13 09:28:40;;;;;;;8.30;6.63;;;28.10;47.10;;;;;;5063829;28;20937;-80
2021/08/13 09:31:16;;;;;;;8.90;6.30;;;28.10;47.60;;;;;;5068913;28;20430;-80
2021/08/13 09:33:45;;;;;;;11.23;6.80;;;28.10;47.40;;;;;;5080928;28;20511;-80
2021/08/13 09:36:12;;;;;;;8.57;6.77;;;28.10;46.90;;;;;;5085978;28;20442;-80
2021/08/13 09:38:39;;;;;;;9.87;6.80;;;28.30;47.30;;;;;;5092315;28;20931;-80
2021/08/13 09:41:10;;;;;;;10.33;6.80;;;28.30;47.70;;;;;;5090551;28;20431;-80
2021/08/13 09:43:57;;;;;;;9.63;6.73;;;28.40;45.90;;;;;;5081188;28;20447;-78
2021/08/13 09:46:25;;;;;;;8.20;6.43;;;28.60;46.00;;;;;;5075153;28;21049;-79
2021/08/13 09:48:52;;;;;;;8.63;6.63;;;28.80;46.20;;;;;;5076060;28;20553;-80
2021/08/13 09:51:32;;;;;;;9.13;6.43;;;29.00;46.40;;;;;;5081937;28;20426;-81
2021/08/13 09:54:00;;;;;;;10.40;6.80;;;29.00;46.30;;;;;;5082809;28;20492;-78
2021/08/13 09:56:29;;;;;;;8.77;7.33;;;29.00;44.50;;;;;;5079279;28;20444;-80
2021/08/13 09:59:11;;;;;;;9.27;6.53;;;29.00;44.60;;;;;;5077032;28;20491;-79
2021/08/13 10:01:39;;;;;;;11.80;7.50;;;28.90;44.20;;;;;;5067015;28;20506;-79
2021/08/13 10:04:07;;;;;;;9.37;6.20;;;28.80;44.40;;;;;;5077868;28;20953;-80
2021/08/13 10:06:35;;;;;;;7.77;6.97;;;28.80;45.50;;;;;;5088337;28;20455;-82
2021/08/13 10:09:02;;;;;;;18.37;7.17;;;28.60;46.00;;;;;;5093239;28;20480;-79
2021/08/13 10:11:34;;;;;;;11.67;6.33;;;28.60;45.30;;;;;;5079225;28;20966;-81
2021/08/13 10:14:01;;;;;;;12.70;7.17;;;28.60;45.20;;;;;;5082957;28;20802;-81
2021/08/13 10:16:29;;;;;;;11.80;7.90;;;28.80;46.20;;;;;;5082959;28;20452;-79
2021/08/13 10:18:57;;;;;;;10.90;6.77;;;29.00;44.60;;;;;;5076061;28;20458;-79
2021/08/13 10:21:24;;;;;;;10.60;6.77;;;29.00;44.20;;;;;;5084433;28;20840;-80
2021/08/13 10:23:58;;;;;;;8.00;7.00;;;28.90;44.20;;;;;;5091350;28;20472;-81
2021/08/13 10:26:25;;;;;;;11.23;6.73;;;28.80;44.80;;;;;;5092081;28;20452;-81
2021/08/13 10:31:50;;;;;;;11.77;7.70;;;28.90;45.10;;;;;;5074420;28;20446;-81
2021/08/13 10:34:17;;;;;;;10.70;6.97;;;28.80;45.00;;;;;;5074131;28;20466;-77
2021/08/13 10:36:46;;;;;;;7.93;7.03;;;28.90;44.50;;;;;;5077542;28;20812;-79
2021/08/13 10:39:16;;;;;;;8.17;7.47;;;28.80;44.70;;;;;;5077543;28;20451;-79
2021/08/13 10:41:47;;;;;;;9.80;7.00;;;28.90;44.80;;;;;;5075185;28;20420;-80
2021/08/13 10:44:19;;;;;;;9.43;7.37;;;29.00;44.20;;;;;;5077018;28;20548;-79
2021/08/13 10:46:47;;;;;;;8.10;6.93;;;29.00;44.70;;;;;;5077114;28;20482;-79
2021/08/13 10:49:21;;;;;;;10.10;7.77;;;29.20;44.00;;;;;;5082116;28;20955;-79
2021/08/13 10:52:02;;;;;;;9.70;6.80;;;29.20;44.20;;;;;;5059728;28;20441;-80
2021/08/13 10:54:40;;;;;;;9.43;7.10;;;29.40;44.10;;;;;;5070211;28;20462;-78
2021/08/13 10:57:10;;;;;;;8.10;7.30;;;29.30;44.40;;;;;;5048670;28;20458;-79
2021/08/13 10:59:59;;;;;;;7.90;6.70;;;29.40;44.30;;;;;;5044985;28;20527;-81
2021/08/13 11:02:27;;;;;;;10.63;7.90;;;29.50;43.80;;;;;;5037147;28;20425;-78
2021/08/13 11:04:54;;;;;;;11.47;7.40;;;29.50;44.30;;;;;;5037396;28;20515;-80
2021/08/13 11:07:54;;;;;;;10.40;7.47;;;29.50;43.90;;;;;;5037898;28;20466;-80
2021/08/13 11:11:00;;;;;;;10.20;7.27;;;29.60;43.80;;;;;;5033749;28;20465;-80
2021/08/13 11:13:27;;;;;;;12.80;8.10;;;29.70;43.60;;;;;;5038237;28;20977;-79
2021/08/13 11:15:55;;;;;;;9.60;8.40;;;29.70;43.30;;;;;;5038025;28;20511;-80
2021/08/13 11:18:35;;;;;;;10.60;6.90;;;29.60;43.60;;;;;;5046482;28;20525;-81
2021/08/13 11:21:06;;;;;;;8.73;7.87;;;29.70;44.10;;;;;;5052730;28;20436;-78
2021/08/13 11:23:54;;;;;;;10.47;7.13;;;29.80;43.60;;;;;;5044786;28;20514;-79
2021/08/13 11:27:09;;;;;;;13.33;8.00;;;29.90;43.20;;;;;;5047373;28;20424;-79
2021/08/13 11:29:39;;;;;;;12.83;7.63;;;30.00;43.00;;;;;;5043612;28;20485;-80
2021/08/13 11:32:21;;;;;;;10.23;7.83;;;30.10;42.10;;;;;;5043614;28;20443;-80
2021/08/13 11:34:50;;;;;;;10.83;8.80;;;30.10;42.00;;;;;;5051149;28;20463;-80
2021/08/13 11:37:45;;;;;;;9.00;8.20;;;30.20;42.00;;;;;;5058739;28;20532;-80
2021/08/13 11:40:46;;;;;;;12.90;8.33;;;30.10;43.10;;;;;;5055940;28;20428;-80
2021/08/13 11:43:14;;;;;;;11.10;8.43;;;30.30;42.70;;;;;;5048075;28;20502;-78
2021/08/13 11:45:43;;;;;;;8.97;8.00;;;30.40;42.80;;;;;;5044749;28;20416;-80
2021/08/13 11:48:13;;;;;;;9.23;8.33;;;30.30;42.10;;;;;;5043838;28;20907;-80
2021/08/13 11:50:40;;;;;;;13.63;8.30;;;30.50;42.20;;;;;;5045409;28;20484;-78
2021/08/13 11:53:07;;;;;;;9.20;8.30;;;30.70;42.00;;;;;;5048890;28;20487;-79
2021/08/13 11:55:36;;;;;;;13.43;7.87;;;30.90;42.10;;;;;;5053623;28;20553;-81
2021/08/13 11:58:05;;;;;;;10.60;8.77;;;30.80;41.80;;;;;;5050804;28;20449;-80
2021/08/13 12:00:33;;;;;;;8.83;7.93;;;30.90;41.40;;;;;;5058496;28;20430;-80
2021/08/13 12:03:01;;;;;;;9.50;8.60;;;30.80;41.60;;;;;;5054691;28;20449;-79
2021/08/13 12:05:30;;;;;;;10.73;8.93;;;30.70;41.50;;;;;;5050765;28;20438;-80
2021/08/13 12:07:59;;;;;;;9.30;8.33;;;30.70;41.60;;;;;;5050106;28;20453;-80
2021/08/13 12:10:26;;;;;;;10.73;9.73;;;30.70;42.30;;;;;;5048634;28;20477;-79
2021/08/13 12:12:53;;;;;;;11.30;9.30;;;30.70;41.70;;;;;;5042546;28;20854;-80
2021/08/13 12:15:31;;;;;;;10.53;9.33;;;30.60;41.30;;;;;;5047192;28;20416;-80
2021/08/13 12:17:59;;;;;;;10.57;9.47;;;30.60;41.90;;;;;;5055472;28;20960;-80
2021/08/13 12:20:27;;;;;;;10.33;9.23;;;30.40;42.10;;;;;;5042215;28;20439;-80
2021/08/13 12:23:02;;;;;;;10.40;9.40;;;30.50;42.30;;;;;;5041088;28;20481;-80
2021/08/13 12:25:34;;;;;;;14.40;9.60;;;30.40;42.20;;;;;;5039178;28;20508;-80
2021/08/13 12:28:01;;;;;;;10.80;9.20;;;30.50;42.60;;;;;;5039005;28;20468;-79
2021/08/13 12:30:28;;;;;;;10.10;8.83;;;30.70;42.20;;;;;;5038406;28;20616;-84
2021/08/13 12:32:57;;;;;;;10.40;9.50;;;30.80;41.50;;;;;;5040695;28;20991;-81
2021/08/13 12:35:25;;;;;;;9.80;8.83;;;30.80;41.90;;;;;;5040588;28;20428;-80
2021/08/13 12:37:54;;;;;;;9.90;9.00;;;31.00;41.80;;;;;;5041753;28;20501;-80
2021/08/13 12:40:23;;;;;;;11.57;9.57;;;31.20;41.30;;;;;;5061775;28;20470;-81
2021/08/13 12:42:52;;;;;;;10.33;9.30;;;31.20;40.40;;;;;;5062319;28;20484;-80
2021/08/13 12:45:22;;;;;;;10.70;9.20;;;31.30;39.70;;;;;;5061171;28;20479;-81
2021/08/13 12:47:51;;;;;;;12.00;9.73;;;31.10;40.50;;;;;;5061306;28;20432;-82